sensor_id;sensor_type;location;lat;lon;timestamp;P1;durP1;ratioP1;P2;durP2;ratioP2
23360;SDS011;11852;50.082;18.554;2023-04-15T00:00:49;9.0;;;6.0;;
23360;SDS011;11852;50.082;18.554;2023-04-15T00:01:57;10.0;;;5.0;;
23360;SDS011;11852;50.082;18.554;2023-04-15T00:03:03;10.0;;;5.0;;
23360;SDS011;11852;50.082;18.554;2023-04-15T00:04:13;8.0;;;5.0;;
23360;SDS011;11852;50.082;18.554;2023-04-15T00:05:21;8.0;;;5.0;;
23360;SDS011;11852;50.082;18.554;2023-04-15T00:06:29;10.0;;;5.0;;
23360;SDS011;11852;50.082;18.554;2023-04-15T00:07:36;9.0;;;5.0;;
23360;SDS011;11852;50.082;18.554;2023-04-15T00:08:47;9.0;;;5.0;;
23360;SDS011;11852;50.082;18.554;2023-04-15T00:09:54;8.0;;;4.0;;
23360;SDS011;11852;50.082;18.554;2023-04-15T00:11:00;8.0;;;4.0;;
23360;SDS011;11852;50.082;18.554;2023-04-15T00:12:09;8.0;;;4.0;;
23360;SDS011;11852;50.082;18.554;2023-04-15T00:13:15;7.0;;;4.0;;
23360;SDS011;11852;50.082;18.554;2023-04-15T00:14:22;8.0;;;5.0;;
23360;SDS011;11852;50.082;18.554;2023-04-15T00:15:29;7.0;;;3.0;;
23360;SDS011;11852;50.082;18.554;2023-04-15T00:16:36;7.0;;;4.0;;
23360;SDS011;11852;50.082;18.554;2023-04-15T00:17:43;7.0;;;4.0;;
23360;SDS011;11852;50.082;18.554;2023-04-15T00:18:51;7.0;;;3.0;;
23360;SDS011;11852;50.082;18.554;2023-04-15T00:19:58;8.0;;;3.0;;
23360;SDS011;11852;50.082;18.554;2023-04-15T00:21:05;7.0;;;3.0;;
23360;SDS011;11852;50.082;18.554;2023-04-15T00:22:12;7.0;;;3.0;;
23360;SDS011;11852;50.082;18.554;2023-04-15T00:23:19;7.0;;;3.0;;
23360;SDS011;11852;50.082;18.554;2023-04-15T00:24:26;7.0;;;3.0;;
23360;SDS011;11852;50.082;18.554;2023-04-15T00:25:33;7.0;;;3.0;;
23360;SDS011;11852;50.082;18.554;2023-04-15T00:26:41;8.0;;;4.0;;
23360;SDS011;11852;50.082;18.554;2023-04-15T00:27:49;8.0;;;4.0;;
23360;SDS011;11852;50.082;18.554;2023-04-15T00:28:56;9.0;;;4.0;;
23360;SDS011;11852;50.082;18.554;2023-04-15T00:30:03;7.0;;;3.0;;
23360;SDS011;11852;50.082;18.554;2023-04-15T00:31:10;7.0;;;3.0;;
23360;SDS011;11852;50.082;18.554;2023-04-15T00:32:20;8.0;;;4.0;;
23360;SDS011;11852;50.082;18.554;2023-04-15T00:33:27;7.0;;;4.0;;
23360;SDS011;11852;50.082;18.554;2023-04-15T00:34:34;8.0;;;3.0;;
23360;SDS011;11852;50.082;18.554;2023-04-15T00:35:41;8.0;;;3.0;;
23360;SDS011;11852;50.082;18.554;2023-04-15T00:36:48;8.0;;;4.0;;
23360;SDS011;11852;50.082;18.554;2023-04-15T00:37:57;9.0;;;4.0;;
23360;SDS011;11852;50.082;18.554;2023-04-15T00:39:05;9.0;;;4.0;;
23360;SDS011;11852;50.082;18.554;2023-04-15T00:40:12;8.0;;;4.0;;
23360;SDS011;11852;50.082;18.554;2023-04-15T00:41:22;9.0;;;5.0;;
23360;SDS011;11852;50.082;18.554;2023-04-15T00:42:29;9.0;;;5.0;;
23360;SDS011;11852;50.082;18.554;2023-04-15T00:43:36;9.0;;;4.0;;
23360;SDS011;11852;50.082;18.554;2023-04-15T00:44:43;9.0;;;4.0;;
23360;SDS011;11852;50.082;18.554;2023-04-15T00:45:58;6.0;;;3.0;;
23360;SDS011;11852;50.082;18.554;2023-04-15T00:47:05;7.0;;;3.0;;
23360;SDS011;11852;50.082;18.554;2023-04-15T00:48:15;8.0;;;3.0;;
23360;SDS011;11852;50.082;18.554;2023-04-15T00:49:23;9.0;;;4.0;;
23360;SDS011;11852;50.082;18.554;2023-04-15T00:50:30;8.0;;;4.0;;
23360;SDS011;11852;50.082;18.554;2023-04-15T00:51:37;7.0;;;3.0;;
23360;SDS011;11852;50.082;18.554;2023-04-15T00:52:44;7.0;;;3.0;;
23360;SDS011;11852;50.082;18.554;2023-04-15T00:53:50;9.0;;;3.0;;
23360;SDS011;11852;50.082;18.554;2023-04-15T00:54:58;8.0;;;3.0;;
23360;SDS011;11852;50.082;18.554;2023-04-15T00:56:05;7.0;;;3.0;;
23360;SDS011;11852;50.082;18.554;2023-04-15T00:57:12;14.0;;;3.0;;
23360;SDS011;11852;50.082;18.554;2023-04-15T00:58:22;6.0;;;3.0;;
23360;SDS011;11852;50.082;18.554;2023-04-15T00:59:30;8.0;;;3.0;;
23360;SDS011;11852;50.082;18.554;2023-04-15T01:00:37;8.0;;;3.0;;
23360;SDS011;11852;50.082;18.554;2023-04-15T01:01:44;7.0;;;4.0;;
23360;SDS011;11852;50.082;18.554;2023-04-15T01:02:51;10.0;;;4.0;;
23360;SDS011;11852;50.082;18.554;2023-04-15T01:04:02;8.0;;;4.0;;
23360;SDS011;11852;50.082;18.554;2023-04-15T01:05:10;9.0;;;4.0;;
23360;SDS011;11852;50.082;18.554;2023-04-15T01:06:17;10.0;;;5.0;;
23360;SDS011;11852;50.082;18.554;2023-04-15T01:07:24;12.0;;;5.0;;
23360;SDS011;11852;50.082;18.554;2023-04-15T01:08:31;9.0;;;4.0;;
23360;SDS011;11852;50.082;18.554;2023-04-15T01:09:38;7.0;;;4.0;;
23360;SDS011;11852;50.082;18.554;2023-04-15T01:10:45;7.0;;;3.0;;
23360;SDS011;11852;50.082;18.554;2023-04-15T01:11:52;7.0;;;3.0;;
23360;SDS011;11852;50.082;18.554;2023-04-15T01:12:59;6.0;;;3.0;;
23360;SDS011;11852;50.082;18.554;2023-04-15T01:14:07;7.0;;;3.0;;
23360;SDS011;11852;50.082;18.554;2023-04-15T01:15:13;6.0;;;3.0;;
23360;SDS011;11852;50.082;18.554;2023-04-15T01:16:20;7.0;;;3.0;;
23360;SDS011;11852;50.082;18.554;2023-04-15T01:17:27;8.0;;;3.0;;
23360;SDS011;11852;50.082;18.554;2023-04-15T01:18:35;7.0;;;3.0;;
23360;SDS011;11852;50.082;18.554;2023-04-15T01:19:41;7.0;;;3.0;;
23360;SDS011;11852;50.082;18.554;2023-04-15T01:20:48;6.0;;;3.0;;
23360;SDS011;11852;50.082;18.554;2023-04-15T01:22:01;7.0;;;3.0;;
23360;SDS011;11852;50.082;18.554;2023-04-15T01:23:08;7.0;;;3.0;;
23360;SDS011;11852;50.082;18.554;2023-04-15T01:24:14;6.0;;;3.0;;
23360;SDS011;11852;50.082;18.554;2023-04-15T01:26:38;6.0;;;3.0;;
23360;SDS011;11852;50.082;18.554;2023-04-15T01:27:44;7.0;;;3.0;;
23360;SDS011;11852;50.082;18.554;2023-04-15T01:28:54;8.0;;;4.0;;
23360;SDS011;11852;50.082;18.554;2023-04-15T01:30:02;7.0;;;3.0;;
23360;SDS011;11852;50.082;18.554;2023-04-15T01:31:10;8.0;;;4.0;;
23360;SDS011;11852;50.082;18.554;2023-04-15T01:32:16;8.0;;;4.0;;
23360;SDS011;11852;50.082;18.554;2023-04-15T01:33:23;8.0;;;4.0;;
23360;SDS011;11852;50.082;18.554;2023-04-15T01:34:32;8.0;;;4.0;;
23360;SDS011;11852;50.082;18.554;2023-04-15T01:35:39;7.0;;;4.0;;
23360;SDS011;11852;50.082;18.554;2023-04-15T01:36:46;8.0;;;4.0;;
23360;SDS011;11852;50.082;18.554;2023-04-15T01:37:53;7.0;;;4.0;;
23360;SDS011;11852;50.082;18.554;2023-04-15T01:39:00;8.0;;;4.0;;
23360;SDS011;11852;50.082;18.554;2023-04-15T01:40:07;9.0;;;4.0;;
23360;SDS011;11852;50.082;18.554;2023-04-15T01:41:20;10.0;;;5.0;;
23360;SDS011;11852;50.082;18.554;2023-04-15T01:42:24;8.0;;;5.0;;
23360;SDS011;11852;50.082;18.554;2023-04-15T01:43:31;10.0;;;5.0;;
23360;SDS011;11852;50.082;18.554;2023-04-15T01:44:38;10.0;;;6.0;;
23360;SDS011;11852;50.082;18.554;2023-04-15T01:45:45;10.0;;;5.0;;
23360;SDS011;11852;50.082;18.554;2023-04-15T01:46:52;9.0;;;5.0;;
23360;SDS011;11852;50.082;18.554;2023-04-15T01:47:59;9.0;;;5.0;;
23360;SDS011;11852;50.082;18.554;2023-04-15T01:49:06;9.0;;;5.0;;
23360;SDS011;11852;50.082;18.554;2023-04-15T01:50:13;9.0;;;4.0;;
23360;SDS011;11852;50.082;18.554;2023-04-15T01:51:20;8.0;;;4.0;;
23360;SDS011;11852;50.082;18.554;2023-04-15T01:52:28;9.0;;;4.0;;
23360;SDS011;11852;50.082;18.554;2023-04-15T01:53:36;9.0;;;4.0;;
23360;SDS011;11852;50.082;18.554;2023-04-15T01:54:43;10.0;;;5.0;;
23360;SDS011;11852;50.082;18.554;2023-04-15T01:55:50;11.0;;;6.0;;
23360;SDS011;11852;50.082;18.554;2023-04-15T01:56:57;17.0;;;8.0;;
23360;SDS011;11852;50.082;18.554;2023-04-15T01:58:04;14.0;;;8.0;;
23360;SDS011;11852;50.082;18.554;2023-04-15T01:59:10;12.0;;;7.0;;
23360;SDS011;11852;50.082;18.554;2023-04-15T02:00:17;14.0;;;8.0;;
23360;SDS011;11852;50.082;18.554;2023-04-15T02:01:24;13.0;;;7.0;;
23360;SDS011;11852;50.082;18.554;2023-04-15T02:02:34;13.0;;;8.0;;
23360;SDS011;11852;50.082;18.554;2023-04-15T02:03:41;14.0;;;8.0;;
23360;SDS011;11852;50.082;18.554;2023-04-15T02:04:51;15.0;;;9.0;;
23360;SDS011;11852;50.082;18.554;2023-04-15T02:06:01;16.0;;;9.0;;
23360;SDS011;11852;50.082;18.554;2023-04-15T02:07:08;16.0;;;10.0;;
23360;SDS011;11852;50.082;18.554;2023-04-15T02:08:15;15.0;;;9.0;;
23360;SDS011;11852;50.082;18.554;2023-04-15T02:09:24;16.0;;;10.0;;
23360;SDS011;11852;50.082;18.554;2023-04-15T02:10:32;17.0;;;10.0;;
23360;SDS011;11852;50.082;18.554;2023-04-15T02:11:39;18.0;;;10.0;;
23360;SDS011;11852;50.082;18.554;2023-04-15T02:12:46;18.0;;;10.0;;
23360;SDS011;11852;50.082;18.554;2023-04-15T02:13:53;17.0;;;9.0;;
23360;SDS011;11852;50.082;18.554;2023-04-15T02:15:00;15.0;;;8.0;;
23360;SDS011;11852;50.082;18.554;2023-04-15T02:17:22;15.0;;;8.0;;
23360;SDS011;11852;50.082;18.554;2023-04-15T02:18:29;13.0;;;7.0;;
23360;SDS011;11852;50.082;18.554;2023-04-15T02:19:36;13.0;;;7.0;;
23360;SDS011;11852;50.082;18.554;2023-04-15T02:20:42;12.0;;;7.0;;
23360;SDS011;11852;50.082;18.554;2023-04-15T02:21:50;12.0;;;7.0;;
23360;SDS011;11852;50.082;18.554;2023-04-15T02:22:57;12.0;;;7.0;;
23360;SDS011;11852;50.082;18.554;2023-04-15T02:24:04;15.0;;;8.0;;
23360;SDS011;11852;50.082;18.554;2023-04-15T02:25:11;13.0;;;8.0;;
23360;SDS011;11852;50.082;18.554;2023-04-15T02:26:19;13.0;;;8.0;;
23360;SDS011;11852;50.082;18.554;2023-04-15T02:27:28;14.0;;;8.0;;
23360;SDS011;11852;50.082;18.554;2023-04-15T02:28:35;12.0;;;7.0;;
23360;SDS011;11852;50.082;18.554;2023-04-15T02:29:45;13.0;;;8.0;;
23360;SDS011;11852;50.082;18.554;2023-04-15T02:30:52;12.0;;;7.0;;
23360;SDS011;11852;50.082;18.554;2023-04-15T02:31:59;13.0;;;7.0;;
23360;SDS011;11852;50.082;18.554;2023-04-15T02:33:06;11.0;;;7.0;;
23360;SDS011;11852;50.082;18.554;2023-04-15T02:34:15;12.0;;;7.0;;
23360;SDS011;11852;50.082;18.554;2023-04-15T02:35:22;12.0;;;7.0;;
23360;SDS011;11852;50.082;18.554;2023-04-15T02:36:30;13.0;;;8.0;;
23360;SDS011;11852;50.082;18.554;2023-04-15T02:37:40;13.0;;;8.0;;
23360;SDS011;11852;50.082;18.554;2023-04-15T02:38:47;14.0;;;8.0;;
23360;SDS011;11852;50.082;18.554;2023-04-15T02:39:55;13.0;;;7.0;;
23360;SDS011;11852;50.082;18.554;2023-04-15T02:41:02;13.0;;;8.0;;
23360;SDS011;11852;50.082;18.554;2023-04-15T02:42:08;14.0;;;8.0;;
23360;SDS011;11852;50.082;18.554;2023-04-15T02:43:15;14.0;;;9.0;;
23360;SDS011;11852;50.082;18.554;2023-04-15T02:44:22;15.0;;;8.0;;
23360;SDS011;11852;50.082;18.554;2023-04-15T02:45:29;15.0;;;9.0;;
23360;SDS011;11852;50.082;18.554;2023-04-15T02:46:36;18.0;;;10.0;;
23360;SDS011;11852;50.082;18.554;2023-04-15T02:47:45;17.0;;;10.0;;
23360;SDS011;11852;50.082;18.554;2023-04-15T02:48:52;16.0;;;9.0;;
23360;SDS011;11852;50.082;18.554;2023-04-15T02:50:02;15.0;;;9.0;;
23360;SDS011;11852;50.082;18.554;2023-04-15T02:51:17;15.0;;;9.0;;
23360;SDS011;11852;50.082;18.554;2023-04-15T02:52:22;14.0;;;9.0;;
23360;SDS011;11852;50.082;18.554;2023-04-15T02:53:29;14.0;;;8.0;;
23360;SDS011;11852;50.082;18.554;2023-04-15T02:54:39;16.0;;;9.0;;
23360;SDS011;11852;50.082;18.554;2023-04-15T02:55:46;16.0;;;9.0;;
23360;SDS011;11852;50.082;18.554;2023-04-15T02:56:56;18.0;;;9.0;;
23360;SDS011;11852;50.082;18.554;2023-04-15T02:58:03;20.0;;;9.0;;
23360;SDS011;11852;50.082;18.554;2023-04-15T02:59:11;16.0;;;8.0;;
23360;SDS011;11852;50.082;18.554;2023-04-15T03:00:17;14.0;;;7.0;;
23360;SDS011;11852;50.082;18.554;2023-04-15T03:01:24;15.0;;;7.0;;
23360;SDS011;11852;50.082;18.554;2023-04-15T03:02:37;12.0;;;7.0;;
23360;SDS011;11852;50.082;18.554;2023-04-15T03:03:43;13.0;;;7.0;;
23360;SDS011;11852;50.082;18.554;2023-04-15T03:04:50;12.0;;;7.0;;
23360;SDS011;11852;50.082;18.554;2023-04-15T03:05:57;12.0;;;7.0;;
23360;SDS011;11852;50.082;18.554;2023-04-15T03:07:04;13.0;;;7.0;;
23360;SDS011;11852;50.082;18.554;2023-04-15T03:08:11;13.0;;;7.0;;
23360;SDS011;11852;50.082;18.554;2023-04-15T03:09:18;13.0;;;7.0;;
23360;SDS011;11852;50.082;18.554;2023-04-15T03:10:25;11.0;;;7.0;;
23360;SDS011;11852;50.082;18.554;2023-04-15T03:11:32;12.0;;;7.0;;
23360;SDS011;11852;50.082;18.554;2023-04-15T03:12:40;12.0;;;7.0;;
23360;SDS011;11852;50.082;18.554;2023-04-15T03:13:47;13.0;;;7.0;;
23360;SDS011;11852;50.082;18.554;2023-04-15T03:14:54;13.0;;;7.0;;
23360;SDS011;11852;50.082;18.554;2023-04-15T03:16:01;13.0;;;7.0;;
23360;SDS011;11852;50.082;18.554;2023-04-15T03:17:11;15.0;;;8.0;;
23360;SDS011;11852;50.082;18.554;2023-04-15T03:18:18;20.0;;;9.0;;
23360;SDS011;11852;50.082;18.554;2023-04-15T03:19:25;16.0;;;8.0;;
23360;SDS011;11852;50.082;18.554;2023-04-15T03:20:32;15.0;;;8.0;;
23360;SDS011;11852;50.082;18.554;2023-04-15T03:21:39;14.0;;;8.0;;
23360;SDS011;11852;50.082;18.554;2023-04-15T03:22:46;15.0;;;7.0;;
23360;SDS011;11852;50.082;18.554;2023-04-15T03:23:54;14.0;;;8.0;;
23360;SDS011;11852;50.082;18.554;2023-04-15T03:25:04;15.0;;;8.0;;
23360;SDS011;11852;50.082;18.554;2023-04-15T03:27:33;14.0;;;8.0;;
23360;SDS011;11852;50.082;18.554;2023-04-15T03:28:41;13.0;;;7.0;;
23360;SDS011;11852;50.082;18.554;2023-04-15T03:29:48;14.0;;;7.0;;
23360;SDS011;11852;50.082;18.554;2023-04-15T03:30:55;15.0;;;7.0;;
23360;SDS011;11852;50.082;18.554;2023-04-15T03:32:06;13.0;;;7.0;;
23360;SDS011;11852;50.082;18.554;2023-04-15T03:33:13;13.0;;;7.0;;
23360;SDS011;11852;50.082;18.554;2023-04-15T03:34:20;13.0;;;7.0;;
23360;SDS011;11852;50.082;18.554;2023-04-15T03:35:27;14.0;;;7.0;;
23360;SDS011;11852;50.082;18.554;2023-04-15T03:36:34;13.0;;;7.0;;
23360;SDS011;11852;50.082;18.554;2023-04-15T03:37:41;13.0;;;7.0;;
23360;SDS011;11852;50.082;18.554;2023-04-15T03:38:48;12.0;;;6.0;;
23360;SDS011;11852;50.082;18.554;2023-04-15T03:39:55;12.0;;;7.0;;
23360;SDS011;11852;50.082;18.554;2023-04-15T03:41:02;12.0;;;6.0;;
23360;SDS011;11852;50.082;18.554;2023-04-15T03:42:08;11.0;;;6.0;;
23360;SDS011;11852;50.082;18.554;2023-04-15T03:43:16;10.0;;;6.0;;
23360;SDS011;11852;50.082;18.554;2023-04-15T03:44:23;12.0;;;6.0;;
23360;SDS011;11852;50.082;18.554;2023-04-15T03:45:30;14.0;;;7.0;;
23360;SDS011;11852;50.082;18.554;2023-04-15T03:46:37;14.0;;;7.0;;
23360;SDS011;11852;50.082;18.554;2023-04-15T03:47:48;14.0;;;7.0;;
23360;SDS011;11852;50.082;18.554;2023-04-15T03:48:56;14.0;;;8.0;;
23360;SDS011;11852;50.082;18.554;2023-04-15T03:50:07;14.0;;;8.0;;
23360;SDS011;11852;50.082;18.554;2023-04-15T03:51:18;14.0;;;8.0;;
23360;SDS011;11852;50.082;18.554;2023-04-15T03:52:25;16.0;;;7.0;;
23360;SDS011;11852;50.082;18.554;2023-04-15T03:53:35;16.0;;;8.0;;
23360;SDS011;11852;50.082;18.554;2023-04-15T03:54:41;15.0;;;8.0;;
23360;SDS011;11852;50.082;18.554;2023-04-15T03:55:48;16.0;;;8.0;;
23360;SDS011;11852;50.082;18.554;2023-04-15T03:56:57;16.0;;;9.0;;
23360;SDS011;11852;50.082;18.554;2023-04-15T03:58:04;19.0;;;9.0;;
23360;SDS011;11852;50.082;18.554;2023-04-15T03:59:11;18.0;;;10.0;;
23360;SDS011;11852;50.082;18.554;2023-04-15T04:00:18;18.0;;;9.0;;
23360;SDS011;11852;50.082;18.554;2023-04-15T04:01:28;19.0;;;9.0;;
23360;SDS011;11852;50.082;18.554;2023-04-15T04:02:35;18.0;;;10.0;;
23360;SDS011;11852;50.082;18.554;2023-04-15T04:03:42;18.0;;;10.0;;
23360;SDS011;11852;50.082;18.554;2023-04-15T04:04:49;18.0;;;9.0;;
23360;SDS011;11852;50.082;18.554;2023-04-15T04:05:58;16.0;;;8.0;;
23360;SDS011;11852;50.082;18.554;2023-04-15T04:07:06;16.0;;;9.0;;
23360;SDS011;11852;50.082;18.554;2023-04-15T04:08:13;17.0;;;10.0;;
23360;SDS011;11852;50.082;18.554;2023-04-15T04:09:20;18.0;;;9.0;;
23360;SDS011;11852;50.082;18.554;2023-04-15T04:10:27;19.0;;;10.0;;
23360;SDS011;11852;50.082;18.554;2023-04-15T04:11:34;19.0;;;9.0;;
23360;SDS011;11852;50.082;18.554;2023-04-15T04:12:41;19.0;;;11.0;;
23360;SDS011;11852;50.082;18.554;2023-04-15T04:13:49;18.0;;;9.0;;
23360;SDS011;11852;50.082;18.554;2023-04-15T04:14:56;19.0;;;9.0;;
23360;SDS011;11852;50.082;18.554;2023-04-15T04:16:04;16.0;;;9.0;;
23360;SDS011;11852;50.082;18.554;2023-04-15T04:17:11;14.0;;;7.0;;
23360;SDS011;11852;50.082;18.554;2023-04-15T04:18:18;14.0;;;8.0;;
23360;SDS011;11852;50.082;18.554;2023-04-15T04:19:25;15.0;;;8.0;;
23360;SDS011;11852;50.082;18.554;2023-04-15T04:20:32;17.0;;;8.0;;
23360;SDS011;11852;50.082;18.554;2023-04-15T04:21:39;15.0;;;9.0;;
23360;SDS011;11852;50.082;18.554;2023-04-15T04:22:46;19.0;;;9.0;;
23360;SDS011;11852;50.082;18.554;2023-04-15T04:23:53;30.0;;;13.0;;
23360;SDS011;11852;50.082;18.554;2023-04-15T04:25:00;27.0;;;12.0;;
23360;SDS011;11852;50.082;18.554;2023-04-15T04:26:09;32.0;;;13.0;;
23360;SDS011;11852;50.082;18.554;2023-04-15T04:27:16;30.0;;;13.0;;
23360;SDS011;11852;50.082;18.554;2023-04-15T04:28:23;31.0;;;14.0;;
23360;SDS011;11852;50.082;18.554;2023-04-15T04:29:30;27.0;;;12.0;;
23360;SDS011;11852;50.082;18.554;2023-04-15T04:30:37;24.0;;;13.0;;
23360;SDS011;11852;50.082;18.554;2023-04-15T04:31:44;23.0;;;12.0;;
23360;SDS011;11852;50.082;18.554;2023-04-15T04:32:51;22.0;;;11.0;;
23360;SDS011;11852;50.082;18.554;2023-04-15T04:33:59;20.0;;;11.0;;
23360;SDS011;11852;50.082;18.554;2023-04-15T04:35:06;22.0;;;11.0;;
23360;SDS011;11852;50.082;18.554;2023-04-15T04:36:15;21.0;;;11.0;;
23360;SDS011;11852;50.082;18.554;2023-04-15T04:37:22;19.0;;;10.0;;
23360;SDS011;11852;50.082;18.554;2023-04-15T04:38:30;19.0;;;10.0;;
23360;SDS011;11852;50.082;18.554;2023-04-15T04:39:37;25.0;;;12.0;;
23360;SDS011;11852;50.082;18.554;2023-04-15T04:40:44;24.0;;;12.0;;
23360;SDS011;11852;50.082;18.554;2023-04-15T04:41:53;23.0;;;12.0;;
23360;SDS011;11852;50.082;18.554;2023-04-15T04:43:00;25.0;;;12.0;;
23360;SDS011;11852;50.082;18.554;2023-04-15T04:44:07;25.0;;;12.0;;
23360;SDS011;11852;50.082;18.554;2023-04-15T04:45:14;21.0;;;11.0;;
23360;SDS011;11852;50.082;18.554;2023-04-15T04:46:21;22.0;;;11.0;;
23360;SDS011;11852;50.082;18.554;2023-04-15T04:47:28;20.0;;;11.0;;
23360;SDS011;11852;50.082;18.554;2023-04-15T04:48:35;26.0;;;12.0;;
23360;SDS011;11852;50.082;18.554;2023-04-15T04:49:47;23.0;;;12.0;;
23360;SDS011;11852;50.082;18.554;2023-04-15T04:50:55;23.0;;;12.0;;
23360;SDS011;11852;50.082;18.554;2023-04-15T04:52:03;23.0;;;12.0;;
23360;SDS011;11852;50.082;18.554;2023-04-15T04:53:10;23.0;;;12.0;;
23360;SDS011;11852;50.082;18.554;2023-04-15T04:54:17;23.0;;;12.0;;
23360;SDS011;11852;50.082;18.554;2023-04-15T04:55:25;23.0;;;12.0;;
23360;SDS011;11852;50.082;18.554;2023-04-15T04:56:35;24.0;;;12.0;;
23360;SDS011;11852;50.082;18.554;2023-04-15T04:57:42;25.0;;;13.0;;
23360;SDS011;11852;50.082;18.554;2023-04-15T04:58:49;25.0;;;13.0;;
23360;SDS011;11852;50.082;18.554;2023-04-15T04:59:56;26.0;;;13.0;;
23360;SDS011;11852;50.082;18.554;2023-04-15T05:01:10;24.0;;;14.0;;
23360;SDS011;11852;50.082;18.554;2023-04-15T05:02:17;24.0;;;13.0;;
23360;SDS011;11852;50.082;18.554;2023-04-15T05:03:25;26.0;;;14.0;;
23360;SDS011;11852;50.082;18.554;2023-04-15T05:04:32;24.0;;;15.0;;
23360;SDS011;11852;50.082;18.554;2023-04-15T05:05:39;38.0;;;23.0;;
23360;SDS011;11852;50.082;18.554;2023-04-15T05:06:47;33.0;;;20.0;;
23360;SDS011;11852;50.082;18.554;2023-04-15T05:07:58;36.0;;;22.0;;
23360;SDS011;11852;50.082;18.554;2023-04-15T05:09:05;35.0;;;24.0;;
23360;SDS011;11852;50.082;18.554;2023-04-15T05:10:12;27.0;;;18.0;;
23360;SDS011;11852;50.082;18.554;2023-04-15T05:11:20;31.0;;;20.0;;
23360;SDS011;11852;50.082;18.554;2023-04-15T05:12:27;35.0;;;22.0;;
23360;SDS011;11852;50.082;18.554;2023-04-15T05:13:33;39.0;;;25.0;;
23360;SDS011;11852;50.082;18.554;2023-04-15T05:14:43;46.0;;;30.0;;
23360;SDS011;11852;50.082;18.554;2023-04-15T05:15:50;36.0;;;23.0;;
23360;SDS011;11852;50.082;18.554;2023-04-15T05:16:57;35.0;;;22.0;;
23360;SDS011;11852;50.082;18.554;2023-04-15T05:18:04;32.0;;;21.0;;
23360;SDS011;11852;50.082;18.554;2023-04-15T05:19:15;33.0;;;21.0;;
23360;SDS011;11852;50.082;18.554;2023-04-15T05:20:22;32.0;;;22.0;;
23360;SDS011;11852;50.082;18.554;2023-04-15T05:21:30;31.0;;;20.0;;
23360;SDS011;11852;50.082;18.554;2023-04-15T05:22:37;31.0;;;20.0;;
23360;SDS011;11852;50.082;18.554;2023-04-15T05:23:44;33.0;;;22.0;;
23360;SDS011;11852;50.082;18.554;2023-04-15T05:24:51;31.0;;;20.0;;
23360;SDS011;11852;50.082;18.554;2023-04-15T05:25:59;28.0;;;19.0;;
23360;SDS011;11852;50.082;18.554;2023-04-15T05:27:06;28.0;;;18.0;;
23360;SDS011;11852;50.082;18.554;2023-04-15T05:28:13;27.0;;;18.0;;
23360;SDS011;11852;50.082;18.554;2023-04-15T05:29:23;30.0;;;20.0;;
23360;SDS011;11852;50.082;18.554;2023-04-15T05:30:30;30.0;;;19.0;;
23360;SDS011;11852;50.082;18.554;2023-04-15T05:31:39;33.0;;;20.0;;
23360;SDS011;11852;50.082;18.554;2023-04-15T05:32:47;28.0;;;19.0;;
23360;SDS011;11852;50.082;18.554;2023-04-15T05:33:54;28.0;;;19.0;;
23360;SDS011;11852;50.082;18.554;2023-04-15T05:35:01;27.0;;;18.0;;
23360;SDS011;11852;50.082;18.554;2023-04-15T05:36:08;28.0;;;18.0;;
23360;SDS011;11852;50.082;18.554;2023-04-15T05:37:15;27.0;;;17.0;;
23360;SDS011;11852;50.082;18.554;2023-04-15T05:38:22;28.0;;;17.0;;
23360;SDS011;11852;50.082;18.554;2023-04-15T05:39:29;29.0;;;18.0;;
23360;SDS011;11852;50.082;18.554;2023-04-15T05:40:38;29.0;;;18.0;;
23360;SDS011;11852;50.082;18.554;2023-04-15T05:41:45;30.0;;;18.0;;
23360;SDS011;11852;50.082;18.554;2023-04-15T05:42:55;32.0;;;20.0;;
23360;SDS011;11852;50.082;18.554;2023-04-15T05:44:02;29.0;;;18.0;;
23360;SDS011;11852;50.082;18.554;2023-04-15T05:45:13;25.0;;;16.0;;
23360;SDS011;11852;50.082;18.554;2023-04-15T05:46:20;27.0;;;15.0;;
23360;SDS011;11852;50.082;18.554;2023-04-15T05:47:27;25.0;;;17.0;;
23360;SDS011;11852;50.082;18.554;2023-04-15T05:48:34;26.0;;;17.0;;
23360;SDS011;11852;50.082;18.554;2023-04-15T05:49:41;26.0;;;16.0;;
23360;SDS011;11852;50.082;18.554;2023-04-15T05:50:51;27.0;;;16.0;;
23360;SDS011;11852;50.082;18.554;2023-04-15T05:51:59;29.0;;;17.0;;
23360;SDS011;11852;50.082;18.554;2023-04-15T05:53:07;26.0;;;16.0;;
23360;SDS011;11852;50.082;18.554;2023-04-15T05:54:13;23.0;;;15.0;;
23360;SDS011;11852;50.082;18.554;2023-04-15T05:55:20;24.0;;;16.0;;
23360;SDS011;11852;50.082;18.554;2023-04-15T05:56:27;25.0;;;15.0;;
23360;SDS011;11852;50.082;18.554;2023-04-15T05:57:34;23.0;;;15.0;;
23360;SDS011;11852;50.082;18.554;2023-04-15T05:58:41;24.0;;;15.0;;
23360;SDS011;11852;50.082;18.554;2023-04-15T05:59:48;22.0;;;13.0;;
23360;SDS011;11852;50.082;18.554;2023-04-15T06:00:55;19.0;;;12.0;;
23360;SDS011;11852;50.082;18.554;2023-04-15T06:02:02;20.0;;;12.0;;
23360;SDS011;11852;50.082;18.554;2023-04-15T06:03:09;20.0;;;12.0;;
23360;SDS011;11852;50.082;18.554;2023-04-15T06:04:16;18.0;;;11.0;;
23360;SDS011;11852;50.082;18.554;2023-04-15T06:05:23;21.0;;;12.0;;
23360;SDS011;11852;50.082;18.554;2023-04-15T06:06:30;21.0;;;13.0;;
23360;SDS011;11852;50.082;18.554;2023-04-15T06:07:37;20.0;;;13.0;;
23360;SDS011;11852;50.082;18.554;2023-04-15T06:08:47;21.0;;;13.0;;
23360;SDS011;11852;50.082;18.554;2023-04-15T06:09:54;21.0;;;13.0;;
23360;SDS011;11852;50.082;18.554;2023-04-15T06:11:02;20.0;;;13.0;;
23360;SDS011;11852;50.082;18.554;2023-04-15T06:12:09;20.0;;;13.0;;
23360;SDS011;11852;50.082;18.554;2023-04-15T06:13:16;22.0;;;13.0;;
23360;SDS011;11852;50.082;18.554;2023-04-15T06:14:23;18.0;;;12.0;;
23360;SDS011;11852;50.082;18.554;2023-04-15T06:15:31;17.0;;;11.0;;
23360;SDS011;11852;50.082;18.554;2023-04-15T06:16:38;16.0;;;10.0;;
23360;SDS011;11852;50.082;18.554;2023-04-15T06:17:45;17.0;;;10.0;;
23360;SDS011;11852;50.082;18.554;2023-04-15T06:18:55;17.0;;;10.0;;
23360;SDS011;11852;50.082;18.554;2023-04-15T06:20:02;18.0;;;11.0;;
23360;SDS011;11852;50.082;18.554;2023-04-15T06:21:09;16.0;;;10.0;;
23360;SDS011;11852;50.082;18.554;2023-04-15T06:22:16;15.0;;;9.0;;
23360;SDS011;11852;50.082;18.554;2023-04-15T06:23:27;16.0;;;8.0;;
23360;SDS011;11852;50.082;18.554;2023-04-15T06:24:34;13.0;;;8.0;;
23360;SDS011;11852;50.082;18.554;2023-04-15T06:25:44;11.0;;;6.0;;
23360;SDS011;11852;50.082;18.554;2023-04-15T06:26:51;12.0;;;7.0;;
23360;SDS011;11852;50.082;18.554;2023-04-15T06:27:58;11.0;;;6.0;;
23360;SDS011;11852;50.082;18.554;2023-04-15T06:29:05;11.0;;;6.0;;
23360;SDS011;11852;50.082;18.554;2023-04-15T06:30:15;13.0;;;7.0;;
23360;SDS011;11852;50.082;18.554;2023-04-15T06:31:22;12.0;;;7.0;;
23360;SDS011;11852;50.082;18.554;2023-04-15T06:32:30;10.0;;;6.0;;
23360;SDS011;11852;50.082;18.554;2023-04-15T06:33:37;9.0;;;5.0;;
23360;SDS011;11852;50.082;18.554;2023-04-15T06:34:46;10.0;;;6.0;;
23360;SDS011;11852;50.082;18.554;2023-04-15T06:35:53;10.0;;;6.0;;
23360;SDS011;11852;50.082;18.554;2023-04-15T06:37:00;9.0;;;5.0;;
23360;SDS011;11852;50.082;18.554;2023-04-15T06:38:07;11.0;;;5.0;;
23360;SDS011;11852;50.082;18.554;2023-04-15T06:39:14;10.0;;;6.0;;
23360;SDS011;11852;50.082;18.554;2023-04-15T06:40:21;11.0;;;6.0;;
23360;SDS011;11852;50.082;18.554;2023-04-15T06:41:28;10.0;;;6.0;;
23360;SDS011;11852;50.082;18.554;2023-04-15T06:42:36;10.0;;;6.0;;
23360;SDS011;11852;50.082;18.554;2023-04-15T06:43:43;11.0;;;6.0;;
23360;SDS011;11852;50.082;18.554;2023-04-15T06:44:50;11.0;;;6.0;;
23360;SDS011;11852;50.082;18.554;2023-04-15T06:45:56;11.0;;;6.0;;
23360;SDS011;11852;50.082;18.554;2023-04-15T06:47:03;9.0;;;4.0;;
23360;SDS011;11852;50.082;18.554;2023-04-15T06:48:10;8.0;;;3.0;;
23360;SDS011;11852;50.082;18.554;2023-04-15T06:49:17;9.0;;;3.0;;
23360;SDS011;11852;50.082;18.554;2023-04-15T06:50:24;7.0;;;3.0;;
23360;SDS011;11852;50.082;18.554;2023-04-15T06:51:33;6.0;;;3.0;;